createdAt,value
2023-01-22T00:03:14.238Z,9.98
2023-01-22T00:08:16.296Z,9.32
2023-01-22T00:13:19.278Z,11.27
2023-01-22T00:18:21.557Z,12.93
2023-01-22T00:23:24.842Z,11.85
2023-01-22T00:28:27.192Z,11.38
2023-01-22T00:33:29.803Z,10.27
2023-01-22T00:38:31.866Z,10.93
2023-01-22T00:43:36.080Z,11.98
2023-01-22T00:48:38.372Z,12.30
2023-01-22T00:53:41.463Z,10.55
2023-01-22T00:58:43.977Z,10.63
2023-01-22T01:03:46.448Z,11.52
2023-01-22T01:08:49.677Z,9.73
2023-01-22T01:13:52.904Z,10.02
2023-01-22T01:19:00.581Z,8.68
2023-01-22T01:24:04.034Z,9.35
2023-01-22T01:29:09.979Z,8.85
2023-01-22T01:34:12.166Z,8.77
2023-01-22T01:39:14.226Z,7.10
2023-01-22T01:44:22.386Z,7.50
2023-01-22T01:49:42.070Z,8.55
2023-01-22T01:54:48.544Z,10.65
2023-01-22T01:59:52.630Z,13.68
2023-01-22T02:04:54.833Z,11.40
2023-01-22T02:09:57.695Z,9.70
2023-01-22T02:15:03.644Z,10.40
2023-01-22T02:20:07.249Z,10.88
2023-01-22T02:25:09.703Z,10.30
2023-01-22T02:30:13.302Z,9.93
2023-01-22T02:35:15.361Z,10.68
2023-01-22T02:40:18.507Z,10.82
2023-01-22T02:45:20.831Z,12.02
2023-01-22T02:50:22.847Z,11.27
2023-01-22T02:55:25.267Z,10.55
2023-01-22T03:00:27.927Z,9.13
2023-01-22T03:05:31.256Z,9.55
2023-01-22T03:10:33.316Z,7.82
2023-01-22T03:15:57.771Z,9.02
2023-01-22T03:21:18.856Z,9.23
2023-01-22T03:26:22.937Z,10.10
2023-01-22T03:31:25.290Z,10.57
2023-01-22T03:36:27.572Z,10.32
2023-01-22T03:41:34.040Z,10.30
2023-01-22T03:46:38.114Z,9.27
2023-01-22T03:51:40.715Z,8.40
2023-01-22T03:56:43.195Z,8.02
2023-01-22T04:01:55.895Z,7.60
2023-01-22T04:06:58.038Z,7.18
2023-01-22T04:12:00.158Z,8.27
2023-01-22T04:17:02.921Z,9.30
2023-01-22T04:22:25.791Z,9.18
2023-01-22T04:27:28.060Z,8.10
2023-01-22T04:32:31.086Z,8.48
2023-01-22T04:37:59.533Z,8.35
2023-01-22T04:43:05.916Z,7.55
2023-01-22T04:48:11.342Z,6.50
2023-01-22T04:53:15.655Z,8.43
2023-01-22T04:58:18.490Z,8.25
2023-01-22T05:03:20.705Z,8.30
2023-01-22T05:08:23.035Z,8.68
2023-01-22T05:13:26.490Z,8.80
2023-01-22T05:18:28.804Z,7.82
2023-01-22T05:23:30.986Z,6.75
2023-01-22T05:28:33.355Z,6.25
2023-01-22T05:33:53.043Z,7.65
2023-01-22T05:38:57.318Z,7.13
2023-01-22T05:44:02.809Z,8.23
2023-01-22T05:49:05.744Z,8.00
2023-01-22T05:54:09.893Z,7.95
2023-01-22T05:59:14.748Z,8.15
2023-01-22T06:04:20.510Z,8.13
2023-01-22T06:09:25.571Z,8.63
2023-01-22T06:14:27.879Z,8.60
2023-01-22T06:19:32.804Z,7.68
2023-01-22T06:24:35.145Z,7.13
2023-01-22T06:29:40.110Z,7.25
2023-01-22T06:39:44.983Z,7.05
2023-01-22T06:45:07.519Z,7.38
2023-01-22T06:50:11.777Z,8.63
2023-01-22T06:55:13.882Z,10.05
2023-01-22T07:00:16.915Z,10.90
2023-01-22T07:05:20.137Z,9.02
2023-01-22T07:10:22.885Z,7.50
2023-01-22T07:15:26.557Z,7.90
2023-01-22T07:20:28.628Z,10.82
2023-01-22T07:25:30.601Z,10.15
2023-01-22T07:30:33.211Z,8.80
2023-01-22T07:35:35.247Z,8.82
2023-01-22T07:40:37.365Z,9.13
2023-01-22T07:45:39.399Z,9.73
2023-01-22T07:50:41.667Z,9.23
2023-01-22T07:55:43.798Z,14.20
2023-01-22T08:00:45.883Z,15.25
2023-01-22T08:05:47.950Z,13.68
2023-01-22T08:10:50.074Z,11.40
2023-01-22T08:15:52.296Z,9.35
2023-01-22T08:20:54.604Z,9.27
2023-01-22T08:26:04.163Z,9.02
2023-01-22T08:31:09.383Z,8.15
2023-01-22T08:36:13.448Z,8.18
2023-01-22T08:41:15.839Z,7.60
2023-01-22T08:46:18.010Z,9.70
2023-01-22T08:51:22.681Z,8.30
2023-01-22T08:56:24.890Z,8.53
2023-01-22T09:01:27.635Z,8.98
2023-01-22T09:06:29.715Z,8.60
2023-01-22T09:11:32.160Z,9.25
2023-01-22T09:16:34.553Z,10.38
2023-01-22T09:21:37.666Z,9.93
2023-01-22T09:26:40.733Z,9.35
2023-01-22T09:31:42.827Z,11.60
2023-01-22T09:36:45.923Z,13.02
2023-01-22T09:41:52.622Z,14.65
2023-01-22T09:47:11.727Z,13.95
2023-01-22T09:52:13.832Z,12.85
2023-01-22T09:57:30.642Z,12.02
2023-01-22T10:02:42.818Z,12.95
2023-01-22T10:07:51.435Z,12.75
2023-01-22T10:13:17.187Z,12.80
2023-01-22T10:18:37.979Z,12.05
2023-01-22T10:23:40.132Z,9.93
2023-01-22T10:28:50.489Z,12.52
2023-01-22T10:34:00.045Z,8.77
2023-01-22T10:39:14.154Z,6.35
2023-01-22T10:44:16.282Z,6.82
2023-01-22T10:49:28.220Z,6.00
2023-01-22T10:54:41.651Z,5.53
2023-01-22T10:59:53.348Z,5.78
2023-01-22T11:04:56.539Z,4.97
2023-01-22T11:10:20.252Z,4.75
2023-01-22T11:15:48.357Z,4.28
2023-01-22T11:20:58.923Z,5.07
2023-01-22T11:26:19.629Z,5.85
2023-01-22T11:31:39.350Z,5.00
2023-01-22T11:37:02.917Z,5.38
2023-01-22T11:42:41.601Z,5.95
2023-01-22T11:47:52.318Z,6.35
2023-01-22T11:53:09.081Z,7.72
2023-01-22T11:58:19.997Z,7.88
2023-01-22T12:03:40.873Z,11.40
2023-01-22T12:08:52.001Z,13.93
2023-01-22T12:14:18.038Z,13.05
2023-01-22T12:19:39.395Z,10.70
2023-01-22T12:24:55.781Z,9.10
2023-01-22T12:30:26.018Z,6.80
2023-01-22T12:35:31.550Z,6.13
2023-01-22T12:40:59.455Z,6.32
2023-01-22T12:46:02.595Z,5.82
2023-01-22T12:51:04.870Z,5.63
2023-01-22T12:56:10.224Z,5.53
2023-01-22T13:01:12.311Z,5.18
2023-01-22T13:06:30.684Z,4.15
2023-01-22T13:11:38.474Z,4.60
2023-01-22T13:16:41.491Z,4.65
2023-01-22T13:21:44.211Z,4.45
2023-01-22T13:27:00.077Z,4.90
2023-01-22T13:32:16.141Z,5.00
2023-01-22T13:42:29.583Z,4.40
2023-01-22T13:47:35.940Z,4.93
2023-01-22T13:52:38.007Z,4.28
2023-01-22T13:57:48.523Z,4.93
2023-01-22T14:02:51.117Z,4.82
2023-01-22T14:08:13.724Z,4.65
2023-01-22T14:13:15.913Z,6.25
2023-01-22T14:18:18.614Z,6.78
2023-01-22T14:23:20.740Z,6.93
2023-01-22T14:28:24.747Z,6.38
2023-01-22T14:33:31.180Z,6.38
2023-01-22T14:38:33.221Z,5.35
2023-01-22T14:43:35.831Z,5.75
2023-01-22T14:48:38.806Z,6.18
2023-01-22T14:53:40.989Z,5.60
2023-01-22T14:58:43.113Z,4.93
2023-01-22T15:03:45.278Z,4.38
2023-01-22T15:08:47.445Z,4.97
2023-01-22T15:13:50.164Z,4.28
2023-01-22T15:18:56.493Z,4.13
2023-01-22T15:23:59.127Z,3.63
2023-01-22T15:29:01.883Z,3.95
2023-01-22T15:34:04.418Z,3.33
2023-01-22T15:39:07.212Z,3.67
2023-01-22T15:44:12.503Z,3.92
2023-01-22T15:49:14.922Z,6.40
2023-01-22T15:54:17.114Z,7.03
2023-01-22T15:59:19.734Z,7.25
2023-01-22T16:04:21.932Z,6.43
2023-01-22T16:09:24.292Z,5.75
2023-01-22T16:14:28.381Z,6.75
2023-01-22T16:19:30.530Z,6.13
2023-01-22T16:24:32.729Z,7.00
2023-01-22T16:29:34.823Z,6.80
2023-01-22T16:34:36.921Z,6.78
2023-01-22T16:39:39.250Z,9.40
2023-01-22T16:44:41.365Z,9.23
2023-01-22T16:49:43.896Z,12.73
2023-01-22T16:54:47.832Z,13.48
2023-01-22T16:59:49.902Z,11.65
2023-01-22T17:04:53.315Z,14.70
2023-01-22T17:09:55.475Z,14.73
2023-01-22T17:14:58.229Z,12.93
2023-01-22T17:20:00.311Z,16.65
2023-01-22T17:25:02.590Z,19.00
2023-01-22T17:30:05.700Z,20.60
2023-01-22T17:35:09.874Z,19.95
2023-01-22T17:40:12.428Z,16.40
2023-01-22T17:45:14.612Z,17.75
2023-01-22T17:50:16.882Z,18.90
2023-01-22T17:55:19.043Z,19.40
2023-01-22T18:00:22.873Z,18.83
2023-01-22T18:05:26.662Z,16.67
2023-01-22T18:10:30.624Z,19.23
2023-01-22T18:15:32.794Z,17.98
2023-01-22T18:20:34.823Z,17.02
2023-01-22T18:26:04.691Z,16.67
2023-01-22T18:31:12.870Z,20.80
2023-01-22T18:36:21.500Z,22.00
2023-01-22T18:41:25.012Z,23.85
2023-01-22T18:46:34.430Z,28.65
2023-01-22T18:51:36.567Z,34.58
2023-01-22T18:56:39.251Z,50.70
2023-01-22T19:01:43.614Z,48.00
2023-01-22T19:06:48.262Z,41.50
2023-01-22T19:11:52.423Z,24.13
2023-01-22T19:16:54.863Z,24.05
2023-01-22T19:21:58.049Z,29.85
2023-01-22T19:27:00.211Z,24.50
2023-01-22T19:32:02.396Z,19.00
2023-01-22T19:37:06.442Z,15.52
2023-01-22T19:42:08.506Z,13.13
2023-01-22T19:47:11.253Z,14.63
2023-01-22T19:52:13.523Z,16.85
2023-01-22T19:57:15.990Z,16.08
2023-01-22T20:02:20.781Z,15.25
2023-01-22T20:07:25.148Z,18.00
2023-01-22T20:12:27.496Z,15.73
2023-01-22T20:17:29.551Z,13.30
2023-01-22T20:22:32.152Z,12.90
2023-01-22T20:27:36.366Z,13.93
2023-01-22T20:32:38.404Z,12.77
2023-01-22T20:37:40.431Z,14.32
2023-01-22T20:42:44.068Z,17.95
2023-01-22T20:47:46.071Z,18.38
2023-01-22T20:52:48.817Z,18.30
2023-01-22T20:57:51.353Z,16.80
2023-01-22T21:02:53.393Z,19.88
2023-01-22T21:07:55.500Z,17.55
2023-01-22T21:12:57.666Z,16.25
2023-01-22T21:18:00.009Z,13.43
2023-01-22T21:23:02.177Z,13.35
2023-01-22T21:28:04.347Z,14.32
2023-01-22T21:33:06.443Z,13.50
2023-01-22T21:38:08.442Z,12.65
2023-01-22T21:43:33.725Z,12.70
2023-01-22T21:48:36.977Z,9.65
2023-01-22T21:53:39.181Z,12.15
2023-01-22T21:58:45.198Z,12.68
2023-01-22T22:03:47.431Z,12.77
2023-01-22T22:08:49.439Z,12.63
2023-01-22T22:13:54.134Z,12.02
2023-01-22T22:18:56.806Z,13.35
2023-01-22T22:23:58.999Z,13.45
2023-01-22T22:29:01.537Z,15.43
2023-01-22T22:34:03.702Z,17.50
2023-01-22T22:39:06.627Z,15.43
2023-01-22T22:44:10.378Z,13.25
2023-01-22T22:49:13.566Z,17.02
2023-01-22T22:54:17.732Z,14.73
2023-01-22T22:59:20.971Z,15.48
2023-01-22T23:04:23.425Z,14.43
2023-01-22T23:09:25.845Z,17.30
2023-01-22T23:14:28.039Z,15.90
2023-01-22T23:19:30.384Z,15.45
2023-01-22T23:24:32.464Z,17.73
2023-01-22T23:29:34.561Z,17.90
2023-01-22T23:34:37.616Z,13.07
2023-01-22T23:39:39.806Z,13.10
2023-01-22T23:44:41.990Z,14.43
2023-01-22T23:49:44.125Z,12.48
2023-01-22T23:54:46.366Z,12.60
2023-01-22T23:59:50.009Z,12.02
